createdAt,value
2022-08-23T00:00:49.107Z,2.53
2022-08-23T00:03:55.978Z,2.72
2022-08-23T00:07:00.551Z,2.65
2022-08-23T00:10:03.366Z,2.50
2022-08-23T00:13:06.043Z,2.80
2022-08-23T00:19:16.577Z,2.75
2022-08-23T00:22:19.421Z,2.92
2022-08-23T00:25:22.300Z,2.60
2022-08-23T00:28:25.127Z,2.37
2022-08-23T00:31:29.136Z,2.60
2022-08-23T00:34:32.056Z,2.80
2022-08-23T00:37:34.821Z,2.72
2022-08-23T00:40:37.640Z,2.55
2022-08-23T00:44:00.769Z,2.80
2022-08-23T00:47:25.033Z,2.88
2022-08-23T00:50:33.905Z,2.80
2022-08-23T00:53:40.458Z,2.72
2022-08-23T00:56:43.737Z,2.90
2022-08-23T00:59:46.752Z,2.90
2022-08-23T01:02:51.917Z,3.00
2022-08-23T01:05:59.735Z,3.13
2022-08-23T01:09:06.493Z,3.08
2022-08-23T01:12:15.076Z,2.70
2022-08-23T01:15:24.928Z,2.97
2022-08-23T01:18:31.342Z,3.03
2022-08-23T01:21:41.589Z,2.88
2022-08-23T01:25:06.971Z,2.90
2022-08-23T01:28:11.009Z,3.00
2022-08-23T01:31:15.753Z,2.87
2022-08-23T01:34:18.596Z,2.92
2022-08-23T01:37:22.946Z,3.20
2022-08-23T01:40:27.273Z,2.80
2022-08-23T01:43:30.118Z,2.90
2022-08-23T01:46:33.237Z,3.33
2022-08-23T01:49:36.217Z,2.60
2022-08-23T01:52:47.259Z,2.70
2022-08-23T01:55:51.741Z,2.60
2022-08-23T01:58:54.782Z,2.53
2022-08-23T02:01:57.537Z,2.63
2022-08-23T02:05:00.366Z,2.65
2022-08-23T02:08:23.027Z,2.30
2022-08-23T02:11:28.200Z,2.53
2022-08-23T02:14:31.145Z,2.50
2022-08-23T02:17:33.991Z,2.60
2022-08-23T02:20:36.616Z,2.50
2022-08-23T02:23:39.446Z,2.60
2022-08-23T02:26:47.286Z,2.53
2022-08-23T02:29:55.673Z,2.33
2022-08-23T02:32:59.338Z,2.65
2022-08-23T02:36:03.594Z,2.80
2022-08-23T02:39:08.213Z,2.88
2022-08-23T02:42:14.327Z,3.00
2022-08-23T02:45:17.520Z,3.27
2022-08-23T02:48:20.311Z,3.10
2022-08-23T02:51:23.279Z,3.20
2022-08-23T02:54:26.014Z,3.13
2022-08-23T02:57:31.574Z,3.20
2022-08-23T03:00:34.415Z,2.73
2022-08-23T03:03:37.742Z,3.30
2022-08-23T03:06:40.755Z,2.92
2022-08-23T03:09:44.103Z,3.08
2022-08-23T03:12:48.292Z,3.07
2022-08-23T03:15:50.937Z,2.93
2022-08-23T03:18:54.292Z,3.20
2022-08-23T03:21:57.127Z,3.05
2022-08-23T03:25:00.247Z,3.05
2022-08-23T03:28:06.277Z,3.20
2022-08-23T03:31:10.307Z,3.10
2022-08-23T03:34:13.110Z,3.15
2022-08-23T03:37:16.606Z,2.75
2022-08-23T03:40:19.428Z,2.97
2022-08-23T03:43:23.846Z,2.90
2022-08-23T03:46:27.616Z,3.17
2022-08-23T03:49:31.812Z,2.80
2022-08-23T03:52:34.615Z,2.88
2022-08-23T03:55:42.214Z,3.20
2022-08-23T03:58:46.900Z,3.13
2022-08-23T04:01:49.741Z,3.03
2022-08-23T04:04:52.657Z,3.50
2022-08-23T04:07:55.495Z,3.10
2022-08-23T04:10:58.391Z,2.78
2022-08-23T04:14:02.546Z,3.07
2022-08-23T04:17:05.808Z,3.00
2022-08-23T04:20:09.581Z,3.00
2022-08-23T04:23:12.325Z,3.55
2022-08-23T04:26:15.379Z,3.08
2022-08-23T04:29:33.704Z,3.17
2022-08-23T04:32:37.323Z,2.87
2022-08-23T04:35:41.364Z,3.25
2022-08-23T04:38:44.191Z,3.10
2022-08-23T04:42:04.816Z,3.00
2022-08-23T04:45:09.887Z,2.80
2022-08-23T04:48:12.649Z,3.10
2022-08-23T04:51:16.202Z,3.13
2022-08-23T04:54:21.297Z,3.30
2022-08-23T04:57:25.544Z,2.97
2022-08-23T05:00:29.731Z,3.20
2022-08-23T05:03:32.924Z,3.30
2022-08-23T05:06:36.211Z,3.35
2022-08-23T05:09:38.887Z,3.30
2022-08-23T05:12:42.230Z,3.15
2022-08-23T05:15:46.704Z,3.20
2022-08-23T05:18:49.537Z,2.70
2022-08-23T05:21:56.789Z,4.00
2022-08-23T05:24:59.973Z,3.20
2022-08-23T05:28:03.498Z,3.30
2022-08-23T05:31:11.783Z,3.20
2022-08-23T05:34:14.834Z,3.47
2022-08-23T05:37:18.933Z,3.55
2022-08-23T05:40:22.476Z,3.22
2022-08-23T05:43:25.874Z,3.30
2022-08-23T05:46:30.291Z,3.00
2022-08-23T05:49:33.377Z,3.17
2022-08-23T05:52:36.186Z,3.22
2022-08-23T05:55:39.586Z,3.20
2022-08-23T05:58:42.593Z,3.50
2022-08-23T06:01:46.636Z,3.13
2022-08-23T06:04:57.145Z,4.00
2022-08-23T06:08:00.563Z,3.22
2022-08-23T06:11:06.383Z,3.60
2022-08-23T06:14:10.193Z,3.30
2022-08-23T06:17:14.290Z,3.20
2022-08-23T06:20:17.051Z,3.40
2022-08-23T06:23:19.948Z,3.28
2022-08-23T06:26:26.153Z,3.08
2022-08-23T06:29:29.021Z,3.30
2022-08-23T06:32:33.421Z,3.67
2022-08-23T06:35:39.936Z,2.93
2022-08-23T06:38:45.109Z,3.08
2022-08-23T06:41:49.660Z,3.47
2022-08-23T06:44:52.695Z,3.22
2022-08-23T06:47:59.738Z,3.10
2022-08-23T06:51:03.296Z,2.77
2022-08-23T06:54:12.178Z,2.92
2022-08-23T06:57:15.170Z,3.10
2022-08-23T07:00:22.096Z,3.10
2022-08-23T07:03:26.608Z,3.60
2022-08-23T07:06:30.748Z,2.73
2022-08-23T07:09:34.293Z,2.65
2022-08-23T07:12:40.925Z,3.05
2022-08-23T07:15:43.669Z,2.50
2022-08-23T07:18:55.695Z,3.07
2022-08-23T07:21:59.306Z,2.40
2022-08-23T07:25:02.590Z,2.60
2022-08-23T07:28:09.806Z,2.65
2022-08-23T07:31:17.371Z,3.00
2022-08-23T07:34:22.097Z,2.97
2022-08-23T07:37:24.885Z,2.50
2022-08-23T07:40:28.081Z,2.88
2022-08-23T07:43:31.121Z,2.70
2022-08-23T07:46:39.863Z,2.67
2022-08-23T07:49:43.969Z,3.20
2022-08-23T07:52:46.932Z,2.90
2022-08-23T07:55:49.626Z,2.88
2022-08-23T07:58:52.988Z,2.65
2022-08-23T08:01:56.215Z,2.80
2022-08-23T08:05:00.862Z,2.90
2022-08-23T08:08:04.063Z,2.90
2022-08-23T08:11:07.133Z,2.40
2022-08-23T08:14:11.923Z,2.60
2022-08-23T08:17:15.138Z,3.03
2022-08-23T08:20:19.939Z,2.83
2022-08-23T08:23:22.853Z,2.63
2022-08-23T08:26:26.393Z,2.55
2022-08-23T08:29:29.432Z,2.90
2022-08-23T08:32:32.321Z,3.03
2022-08-23T08:35:36.316Z,2.80
2022-08-23T08:38:47.959Z,2.70
2022-08-23T08:42:08.026Z,2.70
2022-08-23T08:45:13.357Z,2.70
2022-08-23T08:48:22.033Z,2.55
2022-08-23T08:51:39.219Z,2.50
2022-08-23T08:54:48.208Z,2.43
2022-08-23T08:57:55.041Z,2.60
2022-08-23T09:00:59.131Z,2.80
2022-08-23T09:04:02.721Z,2.40
2022-08-23T09:07:13.961Z,2.47
2022-08-23T09:10:45.204Z,2.50
2022-08-23T09:14:11.120Z,2.70
2022-08-23T09:17:21.863Z,2.70
2022-08-23T09:20:32.874Z,2.40
2022-08-23T09:23:41.761Z,2.20
2022-08-23T09:26:45.147Z,2.07
2022-08-23T09:29:57.256Z,2.20
2022-08-23T09:33:16.255Z,1.98
2022-08-23T09:36:23.794Z,2.33
2022-08-23T09:39:30.822Z,2.20
2022-08-23T09:42:36.603Z,2.10
2022-08-23T09:45:43.299Z,2.10
2022-08-23T09:48:47.027Z,2.40
2022-08-23T09:51:53.145Z,2.40
2022-08-23T09:55:02.998Z,2.33
2022-08-23T09:58:08.806Z,2.20
2022-08-23T10:01:15.326Z,2.33
2022-08-23T10:04:24.453Z,2.33
2022-08-23T10:07:33.917Z,2.30
2022-08-23T10:10:43.659Z,2.33
2022-08-23T10:13:49.102Z,2.30
2022-08-23T10:17:01.405Z,2.10
2022-08-23T10:20:18.113Z,1.88
2022-08-23T10:23:33.536Z,1.98
2022-08-23T10:26:44.812Z,1.70
2022-08-23T10:29:49.050Z,1.90
2022-08-23T10:33:03.502Z,2.00
2022-08-23T10:36:17.202Z,1.50
2022-08-23T10:39:25.531Z,1.30
2022-08-23T10:42:39.459Z,1.50
2022-08-23T10:45:44.241Z,1.23
2022-08-23T10:48:51.822Z,1.48
2022-08-23T10:51:54.852Z,1.60
2022-08-23T10:55:16.809Z,1.77
2022-08-23T10:58:23.968Z,1.70
2022-08-23T11:01:35.154Z,1.50
2022-08-23T11:04:47.541Z,1.50
2022-08-23T11:08:03.252Z,1.20
2022-08-23T11:11:06.212Z,1.40
2022-08-23T11:14:14.610Z,1.70
2022-08-23T11:17:30.527Z,1.33
2022-08-23T11:21:00.862Z,1.52
2022-08-23T11:24:49.231Z,1.50
2022-08-23T11:27:52.156Z,1.70
2022-08-23T11:31:21.182Z,1.53
2022-08-23T11:34:29.837Z,1.40
2022-08-23T11:37:57.095Z,1.55
2022-08-23T11:41:00.902Z,1.70
2022-08-23T11:44:25.298Z,1.48
2022-08-23T11:47:39.865Z,1.53
2022-08-23T11:51:07.453Z,1.47
2022-08-23T11:54:24.586Z,1.73
2022-08-23T11:57:45.635Z,1.40
2022-08-23T12:01:10.189Z,1.70
2022-08-23T12:04:33.038Z,1.60
2022-08-23T12:07:48.940Z,1.60
2022-08-23T12:11:07.976Z,1.60
2022-08-23T12:14:34.246Z,1.45
2022-08-23T12:18:08.862Z,1.48
2022-08-23T12:21:22.230Z,1.20
2022-08-23T12:24:29.853Z,1.47
2022-08-23T12:27:37.208Z,1.60
2022-08-23T12:30:51.901Z,1.40
2022-08-23T12:34:04.645Z,1.90
2022-08-23T12:37:19.974Z,1.67
2022-08-23T12:40:33.733Z,1.50
2022-08-23T12:43:37.794Z,1.60
2022-08-23T12:46:43.069Z,1.50
2022-08-23T12:49:57.093Z,1.50
2022-08-23T12:53:04.034Z,1.50
2022-08-23T12:56:08.996Z,1.70
2022-08-23T12:59:31.732Z,1.38
2022-08-23T13:02:35.862Z,1.60
2022-08-23T13:05:44.035Z,1.50
2022-08-23T13:08:53.191Z,1.27
2022-08-23T13:11:58.052Z,1.77
2022-08-23T13:15:02.715Z,1.50
2022-08-23T13:18:06.131Z,1.30
2022-08-23T13:24:44.248Z,1.40
2022-08-23T13:27:53.820Z,1.50
2022-08-23T13:31:02.242Z,2.10
2022-08-23T13:34:06.224Z,1.95
2022-08-23T13:37:22.824Z,1.50
2022-08-23T13:40:30.441Z,1.40
2022-08-23T13:43:39.003Z,1.50
2022-08-23T13:46:46.601Z,1.77
2022-08-23T13:49:50.241Z,1.50
2022-08-23T13:56:17.540Z,1.70
2022-08-23T13:59:26.936Z,1.80
2022-08-23T14:02:34.749Z,2.00
2022-08-23T14:05:37.388Z,2.05
2022-08-23T14:08:40.248Z,2.00
2022-08-23T14:11:44.600Z,1.83
2022-08-23T14:14:48.296Z,2.10
2022-08-23T14:17:54.606Z,1.83
2022-08-23T14:20:57.723Z,1.80
2022-08-23T14:24:00.385Z,1.70
2022-08-23T14:27:04.938Z,1.52
2022-08-23T14:30:11.398Z,1.60
2022-08-23T14:33:14.051Z,1.80
2022-08-23T14:36:17.029Z,1.73
2022-08-23T14:39:20.174Z,1.70
2022-08-23T14:42:24.402Z,1.77
2022-08-23T14:45:27.530Z,1.48
2022-08-23T14:48:30.519Z,1.45
2022-08-23T14:51:36.075Z,1.60
2022-08-23T14:54:46.076Z,2.03
2022-08-23T14:57:51.796Z,2.08
2022-08-23T15:00:54.638Z,1.65
2022-08-23T15:04:01.769Z,1.50
2022-08-23T15:07:20.947Z,1.60
2022-08-23T15:13:55.407Z,1.70
2022-08-23T15:16:59.956Z,1.60
2022-08-23T15:20:03.456Z,1.30
2022-08-23T15:23:07.843Z,1.80
2022-08-23T15:26:11.725Z,1.50
2022-08-23T15:29:19.365Z,1.88
2022-08-23T15:32:23.431Z,1.27
2022-08-23T15:35:27.579Z,1.30
2022-08-23T15:38:32.192Z,1.55
2022-08-23T15:41:35.025Z,1.50
2022-08-23T15:44:39.258Z,1.15
2022-08-23T15:47:46.544Z,1.75
2022-08-23T15:50:50.233Z,1.45
2022-08-23T15:53:53.277Z,1.40
2022-08-23T15:56:56.245Z,1.50
2022-08-23T16:00:00.214Z,1.50
2022-08-23T16:03:18.945Z,1.70
2022-08-23T16:06:23.714Z,1.60
2022-08-23T16:09:27.945Z,1.63
2022-08-23T16:12:30.824Z,1.67
2022-08-23T16:15:35.054Z,1.73
2022-08-23T16:18:39.456Z,1.77
2022-08-23T16:21:42.197Z,1.75
2022-08-23T16:24:45.030Z,1.90
2022-08-23T16:27:47.827Z,2.60
2022-08-23T16:30:52.103Z,3.20
2022-08-23T16:33:54.951Z,2.60
2022-08-23T16:37:00.067Z,3.20
2022-08-23T16:40:03.092Z,2.00
2022-08-23T16:43:06.156Z,1.90
2022-08-23T16:46:11.233Z,2.38
2022-08-23T16:49:16.240Z,2.03
2022-08-23T16:52:19.175Z,2.00
2022-08-23T16:55:26.472Z,1.70
2022-08-23T16:58:30.280Z,1.70
2022-08-23T17:01:44.713Z,1.90
2022-08-23T17:04:52.689Z,1.92
2022-08-23T17:07:55.937Z,1.80
2022-08-23T17:11:03.072Z,2.00
2022-08-23T17:14:06.560Z,1.77
2022-08-23T17:17:10.881Z,2.00
2022-08-23T17:20:16.344Z,2.00
2022-08-23T17:23:19.307Z,1.70
2022-08-23T17:26:22.355Z,1.65
2022-08-23T17:29:24.963Z,1.83
2022-08-23T17:32:29.268Z,1.80
2022-08-23T17:35:33.844Z,1.57
2022-08-23T17:38:37.107Z,1.60
2022-08-23T17:41:45.007Z,1.73
2022-08-23T17:44:48.139Z,1.80
2022-08-23T17:47:52.152Z,2.00
2022-08-23T17:50:55.660Z,1.90
2022-08-23T17:53:58.337Z,1.90
2022-08-23T17:57:01.812Z,1.90
2022-08-23T18:00:09.301Z,2.15
2022-08-23T18:03:13.778Z,2.05
2022-08-23T18:06:17.425Z,2.13
2022-08-23T18:09:21.252Z,2.17
2022-08-23T18:12:23.995Z,2.20
2022-08-23T18:15:29.029Z,2.30
2022-08-23T18:18:33.320Z,2.47
2022-08-23T18:21:38.421Z,2.47
2022-08-23T18:24:41.131Z,2.20
2022-08-23T18:28:01.780Z,2.20
2022-08-23T18:31:05.927Z,2.33
2022-08-23T18:34:11.400Z,1.90
2022-08-23T18:37:16.897Z,2.30
2022-08-23T18:40:19.987Z,2.30
2022-08-23T18:43:37.387Z,2.20
2022-08-23T18:46:46.405Z,2.27
2022-08-23T18:49:52.322Z,2.30
2022-08-23T18:52:55.662Z,2.30
2022-08-23T18:55:58.318Z,2.20
2022-08-23T18:59:00.951Z,2.35
2022-08-23T19:02:03.838Z,2.20
2022-08-23T19:05:09.319Z,2.17
2022-08-23T19:08:13.911Z,2.38
2022-08-23T19:11:17.036Z,2.53
2022-08-23T19:14:20.081Z,2.15
2022-08-23T19:17:22.771Z,2.13
2022-08-23T19:20:27.356Z,2.20
2022-08-23T19:23:30.016Z,2.30
2022-08-23T19:26:38.397Z,2.40
2022-08-23T19:29:43.174Z,2.63
2022-08-23T19:32:49.185Z,2.40
2022-08-23T19:35:53.331Z,2.70
2022-08-23T19:39:00.604Z,2.50
2022-08-23T19:42:09.719Z,2.10
2022-08-23T19:45:14.541Z,2.40
2022-08-23T19:48:17.349Z,2.30
2022-08-23T19:51:21.889Z,2.30
2022-08-23T19:54:26.005Z,2.38
2022-08-23T19:57:29.083Z,2.40
2022-08-23T20:00:32.006Z,2.40
2022-08-23T20:03:34.702Z,2.60
2022-08-23T20:06:38.981Z,2.30
2022-08-23T20:09:41.710Z,2.30
2022-08-23T20:12:44.539Z,2.67
2022-08-23T20:15:47.167Z,2.63
2022-08-23T20:18:51.594Z,2.33
2022-08-23T20:22:16.406Z,2.30
2022-08-23T20:25:18.769Z,2.53
2022-08-23T20:28:26.168Z,2.58
2022-08-23T20:31:33.351Z,2.30
2022-08-23T20:34:36.916Z,2.00
2022-08-23T20:37:41.599Z,2.28
2022-08-23T20:40:44.252Z,2.10
2022-08-23T20:43:49.742Z,2.40
2022-08-23T20:46:54.809Z,2.17
2022-08-23T20:49:59.568Z,2.30
2022-08-23T20:53:03.665Z,2.28
2022-08-23T20:56:06.883Z,2.22
2022-08-23T20:59:12.896Z,2.47
2022-08-23T21:02:15.784Z,2.20
2022-08-23T21:05:18.524Z,2.45
2022-08-23T21:08:22.602Z,2.63
2022-08-23T21:11:29.975Z,2.50
2022-08-23T21:14:32.825Z,2.60
2022-08-23T21:17:35.944Z,2.50
2022-08-23T21:20:38.610Z,2.63
2022-08-23T21:23:43.597Z,2.67
2022-08-23T21:26:46.366Z,2.40
2022-08-23T21:29:49.441Z,2.83
2022-08-23T21:32:52.432Z,2.50
2022-08-23T21:35:55.109Z,2.55
2022-08-23T21:38:59.264Z,2.55
2022-08-23T21:42:01.984Z,2.20
2022-08-23T21:45:17.073Z,2.33
2022-08-23T21:48:19.718Z,2.50
2022-08-23T21:51:22.537Z,2.22
2022-08-23T21:54:26.743Z,2.40
2022-08-23T21:57:29.801Z,2.45
2022-08-23T22:00:33.184Z,2.38
2022-08-23T22:03:36.088Z,2.70
2022-08-23T22:06:39.886Z,2.30
2022-08-23T22:09:43.905Z,2.58
2022-08-23T22:12:46.751Z,2.20
2022-08-23T22:15:49.565Z,2.58
2022-08-23T22:18:52.230Z,2.30
2022-08-23T22:21:55.054Z,2.40
2022-08-23T22:24:59.281Z,2.50
2022-08-23T22:28:03.046Z,2.53
2022-08-23T22:31:08.570Z,2.50
2022-08-23T22:34:12.718Z,2.30
2022-08-23T22:37:15.767Z,2.28
2022-08-23T22:40:20.261Z,2.45
2022-08-23T22:43:23.115Z,2.40
2022-08-23T22:46:27.009Z,2.40
2022-08-23T22:49:31.028Z,2.73
2022-08-23T22:52:33.935Z,2.60
2022-08-23T22:55:37.958Z,2.70
2022-08-23T22:58:41.334Z,2.58
2022-08-23T23:01:47.781Z,2.50
2022-08-23T23:04:50.560Z,2.43
2022-08-23T23:08:10.821Z,2.20
2022-08-23T23:11:16.069Z,2.50
2022-08-23T23:14:20.917Z,2.47
2022-08-23T23:17:23.727Z,2.30
2022-08-23T23:20:39.339Z,2.37
2022-08-23T23:23:42.115Z,2.47
2022-08-23T23:26:47.640Z,2.60
2022-08-23T23:29:50.639Z,2.53
2022-08-23T23:32:53.415Z,2.40
2022-08-23T23:35:57.286Z,2.60
2022-08-23T23:39:00.017Z,2.40
2022-08-23T23:42:04.248Z,2.30
2022-08-23T23:45:08.746Z,2.13
2022-08-23T23:48:12.799Z,2.60
2022-08-23T23:51:18.616Z,2.27
2022-08-23T23:54:21.289Z,2.70
2022-08-23T23:57:25.769Z,2.10
